Time;durP1;ratioP1;P1;durP2;ratioP2;P2;SDS_P1;SDS_P2;PMS_P1;PMS_P2;Temp;Humidity;BMP_temperature;BMP_pressure;BME280_temperature;BME280_humidity;BME280_pressure;Samples;Min_cycle;Max_cycle;Signal;HPM_P1;HPM_P2
2021/10/15 00:00:22;;;;;;;;;;;;;;;11.10;73.02;100963.47;4922798;28;106823;-57
2021/10/15 00:02:48;;;;;;;;;;;;;;;11.09;73.28;100949.19;4920848;28;126315;-60
2021/10/15 00:05:14;;;;;;;;;;;;;;;11.10;73.19;100948.09;4921077;28;127911;-58
2021/10/15 00:07:40;;;;;;;;;;;;;;;11.09;73.32;100945.66;4921109;28;127244;-58
2021/10/15 00:10:06;;;;;;;;;;;;;;;11.09;73.19;100946.47;4922346;28;117525;-57
2021/10/15 00:12:33;;;;;;;;;;;;;;;11.09;72.74;100935.69;4922172;28;99225;-57
2021/10/15 00:14:58;;;;;;;;;;;;;;;11.08;72.90;100934.03;4922534;28;107524;-57
2021/10/15 00:17:24;;;;;;;;;;;;;;;11.07;73.18;100930.53;4920578;28;127919;-57
2021/10/15 00:19:50;;;;;;;;;;;;;;;11.07;73.07;100922.44;4922430;28;117002;-60
2021/10/15 00:22:16;;;;;;;;;;;;;;;11.06;72.96;100923.53;4920757;28;128908;-57
2021/10/15 00:24:42;;;;;;;;;;;;;;;11.06;73.22;100925.41;4921230;28;129030;-57
2021/10/15 00:27:08;;;;;;;;;;;;;;;11.06;72.75;100934.31;4920712;28;126514;-58
2021/10/15 00:29:34;;;;;;;;;;;;;;;11.05;73.07;100927.28;4921471;28;112619;-57
2021/10/15 00:32:00;;;;;;;;;;;;;;;11.06;72.91;100928.09;4920829;28;127946;-58
2021/10/15 00:34:26;;;;;;;;;;;;;;;11.06;73.31;100923.53;4921079;28;128885;-59
2021/10/15 00:36:52;;;;;;;;;;;;;;;11.04;72.71;100911.34;4919030;28;127021;-58
2021/10/15 00:39:17;;;;;;;;;;;;;;;11.05;72.65;100919.22;4921478;28;116545;-57
2021/10/15 00:41:43;;;;;;;;;;;;;;;11.05;72.95;100924.59;4921150;28;127190;-59
2021/10/15 00:44:11;;;;;;;;;;;;;;;11.05;73.19;100929.19;4920924;28;128430;-57
2021/10/15 00:46:37;;;;;;;;;;;;;;;11.05;72.79;100913.00;4903537;28;98775;-57
2021/10/15 00:49:08;;;;;;;;;;;;;;;11.05;73.28;100916.50;4921111;28;108949;-59
2021/10/15 00:51:34;;;;;;;;;;;;;;;11.06;73.24;100914.63;4903988;28;98134;-58
2021/10/15 00:54:00;;;;;;;;;;;;;;;11.05;72.56;100913.00;4921030;28;98347;-57
2021/10/15 00:56:28;;;;;;;;;;;;;;;11.04;73.01;100904.09;4922457;28;97834;-58
2021/10/15 00:58:54;;;;;;;;;;;;;;;11.05;72.86;100902.22;4921695;28;98165;-58
2021/10/15 01:01:20;;;;;;;;;;;;;;;11.05;73.18;100891.41;4920772;28;98494;-58
2021/10/15 01:03:46;;;;;;;;;;;;;;;11.04;72.48;100885.22;4920477;28;117052;-57
2021/10/15 01:06:12;;;;;;;;;;;;;;;11.05;72.84;100876.03;4918554;28;125457;-57
2021/10/15 01:08:44;;;;;;;;;;;;;;;11.05;73.05;100884.13;4921052;28;116997;-58
2021/10/15 01:11:10;;;;;;;;;;;;;;;11.05;72.28;100877.94;4903451;28;114541;-58
2021/10/15 01:13:36;;;;;;;;;;;;;;;11.06;72.67;100872.25;4919565;28;128578;-58
2021/10/15 01:16:09;;;;;;;;;;;;;;;11.07;72.32;100864.97;4934898;28;127581;-60
2021/10/15 01:18:35;;;;;;;;;;;;;;;11.06;72.93;100863.38;4921738;28;97961;-57
2021/10/15 01:21:01;;;;;;;;;;;;;;;11.06;72.62;100864.16;4920984;28;119684;-57
2021/10/15 01:23:27;;;;;;;;;;;;;;;11.06;72.58;100858.78;4920823;28;104993;-57
2021/10/15 01:25:53;;;;;;;;;;;;;;;11.07;72.46;100857.69;4920906;28;128143;-58
2021/10/15 01:28:23;;;;;;;;;;;;;;;11.08;72.82;100850.41;4921208;28;98124;-57
2021/10/15 01:30:49;;;;;;;;;;;;;;;11.07;72.46;100849.59;4922045;28;98700;-57
2021/10/15 01:33:15;;;;;;;;;;;;;;;11.09;72.83;100848.56;4920042;28;123285;-58
2021/10/15 01:35:41;;;;;;;;;;;;;;;11.08;72.75;100845.00;4921362;28;98736;-58
2021/10/15 01:38:07;;;;;;;;;;;;;;;11.09;72.74;100843.16;4922128;28;98123;-57
2021/10/15 01:40:33;;;;;;;;;;;;;;;11.09;72.71;100843.16;4902218;28;127403;-58
2021/10/15 01:42:59;;;;;;;;;;;;;;;11.09;72.34;100841.25;4919887;28;128165;-57
2021/10/15 01:45:26;;;;;;;;;;;;;;;11.09;72.67;100833.16;4920543;28;126995;-57
2021/10/15 01:47:52;;;;;;;;;;;;;;;11.11;72.57;100835.59;4920587;28;105027;-58
2021/10/15 01:50:18;;;;;;;;;;;;;;;11.11;72.06;100832.91;4921685;28;98397;-57
2021/10/15 01:52:44;;;;;;;;;;;;;;;11.11;71.98;100819.41;4920283;28;117095;-57
2021/10/15 01:55:11;;;;;;;;;;;;;;;11.11;72.12;100820.22;4920994;28;98196;-58
2021/10/15 01:57:37;;;;;;;;;;;;;;;11.12;72.45;100815.63;4920727;28;101437;-58
2021/10/15 02:00:04;;;;;;;;;;;;;;;11.11;71.89;100820.22;4921612;28;100363;-58
2021/10/15 02:02:30;;;;;;;;;;;;;;;11.12;72.24;100813.75;4920213;28;99240;-58
2021/10/15 02:04:55;;;;;;;;;;;;;;;11.13;72.04;100819.97;4920935;28;100754;-58
2021/10/15 02:07:21;;;;;;;;;;;;;;;11.13;72.05;100815.38;4920320;28;99250;-58
2021/10/15 02:09:47;;;;;;;;;;;;;;;11.14;71.76;100810.78;4921576;28;98233;-58
2021/10/15 02:12:13;;;;;;;;;;;;;;;11.13;72.01;100807.28;4919723;28;127122;-57
2021/10/15 02:14:39;;;;;;;;;;;;;;;11.14;72.44;100797.31;4918079;28;125838;-58
2021/10/15 02:17:05;;;;;;;;;;;;;;;11.14;72.21;100795.41;4935449;28;98528;-58
2021/10/15 02:19:31;;;;;;;;;;;;;;;11.14;72.32;100789.22;4923073;28;125875;-58
2021/10/15 02:21:57;;;;;;;;;;;;;;;11.14;72.28;100789.22;4922939;28;128010;-58
2021/10/15 02:24:23;;;;;;;;;;;;;;;11.13;72.11;100782.19;4923015;28;127581;-58
2021/10/15 02:26:49;;;;;;;;;;;;;;;11.14;71.98;100778.41;4922646;28;116763;-57
2021/10/15 02:29:15;;;;;;;;;;;;;;;11.14;71.77;100781.13;4922692;28;99733;-57
2021/10/15 02:31:41;;;;;;;;;;;;;;;11.15;72.08;100780.03;4922903;28;127079;-58
2021/10/15 02:34:07;;;;;;;;;;;;;;;11.15;71.82;100780.84;4922412;28;128576;-58
2021/10/15 02:36:33;;;;;;;;;;;;;;;11.16;71.58;100782.50;4923470;28;115776;-57
2021/10/15 02:38:59;;;;;;;;;;;;;;;11.15;71.73;100778.16;4922908;28;107541;-57
2021/10/15 02:41:24;;;;;;;;;;;;;;;11.15;71.42;100778.16;4923692;28;98301;-58
2021/10/15 02:43:50;;;;;;;;;;;;;;;11.15;71.98;100772.75;4922377;28;127985;-58
2021/10/15 02:46:16;;;;;;;;;;;;;;;11.16;71.40;100770.84;4923668;28;98111;-59
2021/10/15 02:48:43;;;;;;;;;;;;;;;11.17;71.33;100775.19;4922923;28;127943;-58
2021/10/15 02:51:09;;;;;;;;;;;;;;;11.17;71.73;100770.63;4923394;28;112763;-57
2021/10/15 02:53:35;;;;;;;;;;;;;;;11.17;72.07;100769.81;4922585;28;115087;-58
2021/10/15 02:56:01;;;;;;;;;;;;;;;11.18;71.97;100768.72;4924730;28;98305;-57
2021/10/15 02:58:27;;;;;;;;;;;;;;;11.17;72.13;100765.22;4923253;28;98390;-58
2021/10/15 03:00:53;;;;;;;;;;;;;;;11.17;71.82;100762.50;4922540;28;126019;-58
2021/10/15 03:03:19;;;;;;;;;;;;;;;11.18;71.71;100764.13;4922737;28;119190;-57
2021/10/15 03:05:45;;;;;;;;;;;;;;;11.19;71.63;100762.25;4922885;28;117347;-58
2021/10/15 03:08:11;;;;;;;;;;;;;;;11.18;71.23;100763.31;4922831;28;102604;-58
2021/10/15 03:10:37;;;;;;;;;;;;;;;11.18;71.44;100758.72;4922113;28;117141;-57
2021/10/15 03:13:03;;;;;;;;;;;;;;;11.18;71.45;100755.22;4921725;28;113729;-57
2021/10/15 03:15:29;;;;;;;;;;;;;;;11.19;71.40;100751.44;4922706;28;117203;-57
2021/10/15 03:17:55;;;;;;;;;;;;;;;11.18;71.37;100747.94;4926268;28;98097;-58
2021/10/15 03:20:21;;;;;;;;;;;;;;;11.19;71.79;100746.84;4922136;28;121250;-58
2021/10/15 03:22:47;;;;;;;;;;;;;;;11.19;71.33;100740.66;4922114;28;117118;-58
2021/10/15 03:25:13;;;;;;;;;;;;;;;11.20;71.45;100742.28;4923252;28;97750;-58
2021/10/15 03:27:39;;;;;;;;;;;;;;;11.19;71.62;100732.56;4921495;28;128270;-58
2021/10/15 03:30:05;;;;;;;;;;;;;;;11.19;71.36;100732.56;4921746;28;125348;-58
2021/10/15 03:32:31;;;;;;;;;;;;;;;11.19;71.45;100740.66;4922017;28;120126;-58
2021/10/15 03:34:57;;;;;;;;;;;;;;;11.18;71.31;100733.66;4922849;28;117438;-57
2021/10/15 03:37:23;;;;;;;;;;;;;;;11.16;71.37;100736.63;4922240;28;103700;-58
2021/10/15 03:39:53;;;;;;;;;;;;;;;11.13;71.06;100734.44;4922957;28;99202;-57
2021/10/15 03:42:19;;;;;;;;;;;;;;;11.13;71.20;100730.94;4922796;28;97991;-58
2021/10/15 03:44:45;;;;;;;;;;;;;;;11.12;71.50;100732.81;4922988;28;107525;-58
2021/10/15 03:47:11;;;;;;;;;;;;;;;11.10;71.32;100731.47;4922552;28;97785;-57
2021/10/15 03:49:37;;;;;;;;;;;;;;;11.09;71.05;100724.44;4922409;28;97926;-57
2021/10/15 03:52:03;;;;;;;;;;;;;;;11.08;71.00;100723.63;4922373;28;102929;-58
2021/10/15 03:54:29;;;;;;;;;;;;;;;11.07;71.22;100719.31;4921934;28;108222;-57
2021/10/15 03:56:55;;;;;;;;;;;;;;;11.05;71.09;100719.56;4921226;28;129099;-57
2021/10/15 03:59:21;;;;;;;;;;;;;;;11.04;71.49;100717.13;4921625;28;128828;-57
2021/10/15 04:01:47;;;;;;;;;;;;;;;11.03;71.37;100710.91;4935922;28;128055;-58
2021/10/15 04:04:13;;;;;;;;;;;;;;;11.03;71.40;100705.53;4923829;28;98035;-57
2021/10/15 04:06:39;;;;;;;;;;;;;;;11.03;71.42;100707.41;4922905;28;99206;-58
2021/10/15 04:09:05;;;;;;;;;;;;;;;11.02;71.38;100712.00;4921910;28;99256;-57
2021/10/15 04:11:31;;;;;;;;;;;;;;;11.00;71.28;100706.06;4920050;28;128123;-58
2021/10/15 04:13:57;;;;;;;;;;;;;;;11.00;71.48;100700.69;4922329;28;117386;-57
2021/10/15 04:16:23;;;;;;;;;;;;;;;10.99;71.26;100701.72;4922048;28;117257;-60
2021/10/15 04:18:49;;;;;;;;;;;;;;;10.98;71.05;100692.03;4920402;28;128815;-58
2021/10/15 04:21:15;;;;;;;;;;;;;;;10.98;71.59;100686.63;4921133;28;127411;-57
2021/10/15 04:23:41;;;;;;;;;;;;;;;11.00;71.33;100679.09;4921441;28;117602;-57
2021/10/15 04:26:07;;;;;;;;;;;;;;;10.98;71.60;100680.44;4921810;28;98358;-57
2021/10/15 04:28:34;;;;;;;;;;;;;;;10.99;71.15;100677.47;4936921;28;98191;-58
2021/10/15 04:31:00;;;;;;;;;;;;;;;11.00;71.06;100676.41;4936355;28;105616;-58
2021/10/15 04:33:26;;;;;;;;;;;;;;;11.01;71.09;100675.31;4920964;28;117751;-58
2021/10/15 04:35:52;;;;;;;;;;;;;;;11.01;71.09;100675.31;4921679;28;117756;-57
2021/10/15 04:38:18;;;;;;;;;;;;;;;11.02;71.34;100676.13;4921825;28;99134;-58
2021/10/15 04:40:43;;;;;;;;;;;;;;;11.02;71.31;100670.72;4920977;28;117379;-58
2021/10/15 04:43:09;;;;;;;;;;;;;;;11.01;71.51;100678.03;4921512;28;116673;-57
2021/10/15 04:45:35;;;;;;;;;;;;;;;11.01;71.15;100667.22;4921837;28;112121;-57
2021/10/15 04:48:02;;;;;;;;;;;;;;;11.03;71.07;100672.34;4920904;28;110562;-57
2021/10/15 04:50:28;;;;;;;;;;;;;;;11.04;70.98;100665.88;4922194;28;98965;-57
2021/10/15 04:52:54;;;;;;;;;;;;;;;11.02;71.13;100655.34;4921338;28;118165;-57
2021/10/15 04:55:20;;;;;;;;;;;;;;;11.05;71.14;100656.72;4920648;28;127236;-57
2021/10/15 04:57:46;;;;;;;;;;;;;;;11.06;71.11;100656.44;4919583;28;128057;-57
2021/10/15 05:00:12;;;;;;;;;;;;;;;11.08;70.61;100653.47;4920627;28;128242;-58
2021/10/15 05:02:39;;;;;;;;;;;;;;;11.10;71.20;100648.63;4921358;28;97916;-58
2021/10/15 05:05:07;;;;;;;;;;;;;;;11.12;70.94;100651.88;4922573;28;98496;-57
2021/10/15 05:07:36;;;;;;;;;;;;;;;11.12;70.46;100651.06;4920570;28;98236;-57
2021/10/15 05:10:03;;;;;;;;;;;;;;;11.14;70.42;100654.31;4921909;28;98363;-58
2021/10/15 05:12:29;;;;;;;;;;;;;;;11.15;70.56;100650.53;4921128;28;97964;-60
2021/10/15 05:14:55;;;;;;;;;;;;;;;11.17;70.89;100651.91;4920333;28;127849;-57
2021/10/15 05:17:20;;;;;;;;;;;;;;;11.17;70.30;100638.41;4920820;28;103664;-58
2021/10/15 05:19:46;;;;;;;;;;;;;;;11.19;70.23;100646.22;4921683;28;98621;-57
2021/10/15 05:22:13;;;;;;;;;;;;;;;11.21;70.39;100636.78;4902657;28;117063;-57
2021/10/15 05:24:39;;;;;;;;;;;;;;;11.22;70.57;100634.91;4921586;28;99029;-57
2021/10/15 05:27:05;;;;;;;;;;;;;;;11.23;70.17;100634.63;4903063;28;113251;-57
2021/10/15 05:29:31;;;;;;;;;;;;;;;11.25;70.39;100637.06;4921414;28;98043;-57
2021/10/15 05:31:57;;;;;;;;;;;;;;;11.25;70.05;100632.47;4920385;28;116743;-57
2021/10/15 05:34:23;;;;;;;;;;;;;;;11.28;70.00;100625.75;4921668;28;98464;-58
2021/10/15 05:36:49;;;;;;;;;;;;;;;11.30;69.99;100615.47;4921351;28;98503;-58
2021/10/15 05:39:15;;;;;;;;;;;;;;;11.31;70.05;100623.28;4922252;28;97808;-57
2021/10/15 05:41:41;;;;;;;;;;;;;;;11.31;69.85;100604.41;4921454;28;98303;-57
2021/10/15 05:44:07;;;;;;;;;;;;;;;11.38;70.00;100616.84;4920692;28;128277;-58
2021/10/15 05:46:32;;;;;;;;;;;;;;;11.41;69.69;100611.72;4902644;28;98332;-58
2021/10/15 05:48:58;;;;;;;;;;;;;;;11.44;69.48;100613.88;4919879;28;127687;-57
2021/10/15 05:51:26;;;;;;;;;;;;;;;11.47;69.85;100613.31;4920347;28;102725;-59
2021/10/15 05:53:55;;;;;;;;;;;;;;;11.49;69.46;100615.78;4905412;28;98154;-58
2021/10/15 05:59:06;;;;;;;;;;;;;;;11.50;69.57;100604.69;4937253;28;97872;-56
2021/10/15 06:01:33;;;;;;;;;;;;;;;11.52;69.35;100615.25;4924697;28;97784;-57
2021/10/15 06:07:29;;;;;;;;;;;;;;;11.53;69.16;100608.75;4921867;28;98427;-57
2021/10/15 06:14:40;;;;;;;;;;;;;;;11.62;69.11;100592.81;4921434;28;97864;-60
2021/10/15 06:17:08;;;;;;;;;;;;;;;11.64;69.21;100598.78;4923822;28;98402;-57
2021/10/15 06:19:52;;;;;;;;;;;;;;;11.65;69.16;100601.19;4923927;28;97855;-57
2021/10/15 06:22:20;;;;;;;;;;;;;;;11.67;68.95;100595.50;4924420;28;98102;-56
2021/10/15 06:24:49;;;;;;;;;;;;;;;11.68;69.08;100594.44;4923815;28;117761;-58
2021/10/15 06:27:16;;;;;;;;;;;;;;;11.67;69.25;100588.25;4922653;28;98848;-58
2021/10/15 06:29:42;;;;;;;;;;;;;;;11.71;69.10;100585.78;4923867;28;115652;-58
2021/10/15 06:32:08;;;;;;;;;;;;;;;11.71;69.23;100596.56;4922164;28;116827;-59
2021/10/15 06:34:34;;;;;;;;;;;;;;;11.72;69.23;100592.81;4924786;28;97895;-58
2021/10/15 06:37:00;;;;;;;;;;;;;;;11.75;69.10;100589.56;4922880;28;128333;-57
2021/10/15 06:39:26;;;;;;;;;;;;;;;11.77;68.73;100584.69;4923057;28;128840;-58
2021/10/15 06:41:52;;;;;;;;;;;;;;;11.82;68.84;100592.78;4923844;28;97941;-57
2021/10/15 06:44:18;;;;;;;;;;;;;;;11.85;68.75;100584.19;4923319;28;99265;-57
2021/10/15 06:46:44;;;;;;;;;;;;;;;11.89;68.69;100581.75;4923070;28;128280;-60
2021/10/15 06:49:10;;;;;;;;;;;;;;;11.93;68.71;100583.63;4923267;28;127465;-58
2021/10/15 06:51:37;;;;;;;;;;;;;;;11.97;68.55;100582.00;4923733;28;97796;-57
2021/10/15 06:54:03;;;;;;;;;;;;;;;12.01;68.50;100582.25;4923164;28;98403;-58
2021/10/15 06:56:29;;;;;;;;;;;;;;;12.02;68.43;100573.06;4923117;28;98931;-57
2021/10/15 06:58:55;;;;;;;;;;;;;;;12.06;68.47;100576.84;4924172;28;98163;-57
2021/10/15 07:01:21;;;;;;;;;;;;;;;12.09;68.48;100573.59;4921533;28;108466;-57
2021/10/15 07:03:47;;;;;;;;;;;;;;;12.12;68.26;100572.25;4922070;28;128139;-58
2021/10/15 07:06:13;;;;;;;;;;;;;;;12.12;68.16;100564.94;4923336;28;98478;-58
2021/10/15 07:08:39;;;;;;;;;;;;;;;12.13;68.36;100571.94;4922690;28;107352;-57
2021/10/15 07:11:05;;;;;;;;;;;;;;;12.12;68.29;100566.84;4922653;28;117241;-58
2021/10/15 07:13:31;;;;;;;;;;;;;;;12.11;68.37;100570.63;4921680;28;126297;-57
2021/10/15 07:15:58;;;;;;;;;;;;;;;12.14;68.27;100572.75;4923459;28;98987;-57
2021/10/15 07:18:23;;;;;;;;;;;;;;;12.18;67.87;100566.56;4922785;28;98394;-58
2021/10/15 07:20:49;;;;;;;;;;;;;;;12.26;68.03;100567.84;4922293;28;116059;-57
2021/10/15 07:23:16;;;;;;;;;;;;;;;12.37;67.66;100564.03;4921658;28;127964;-58
2021/10/15 07:25:42;;;;;;;;;;;;;;;12.50;67.52;100566.16;4923001;28;97771;-58
2021/10/15 07:28:08;;;;;;;;;;;;;;;12.57;67.11;100565.84;4922891;28;98133;-58
2021/10/15 07:30:34;;;;;;;;;;;;;;;12.59;67.44;100568.28;4923717;28;97899;-57
2021/10/15 07:33:00;;;;;;;;;;;;;;;12.59;67.35;100565.56;4921545;28;116287;-57
2021/10/15 07:35:26;;;;;;;;;;;;;;;12.60;67.23;100553.66;4923665;28;98720;-57
2021/10/15 07:37:51;;;;;;;;;;;;;;;12.61;67.21;100561.47;4921482;28;128239;-58
2021/10/15 07:40:17;;;;;;;;;;;;;;;12.64;67.27;100562.84;4922869;28;97877;-57
2021/10/15 07:42:43;;;;;;;;;;;;;;;12.66;67.08;100557.97;4903205;28;126381;-58
2021/10/15 07:45:09;;;;;;;;;;;;;;;12.72;67.05;100560.34;4922255;28;103547;-57
2021/10/15 07:47:35;;;;;;;;;;;;;;;12.80;66.80;100558.16;4922660;28;98177;-58
2021/10/15 07:50:01;;;;;;;;;;;;;;;12.86;67.24;100560.56;4922648;28;97831;-57
2021/10/15 07:52:27;;;;;;;;;;;;;;;12.94;66.81;100557.25;4921516;28;128128;-57
2021/10/15 07:54:53;;;;;;;;;;;;;;;13.06;66.54;100550.69;4922379;28;99055;-58
2021/10/15 07:57:19;;;;;;;;;;;;;;;13.20;65.94;100557.06;4921775;28;122522;-57
2021/10/15 07:59:45;;;;;;;;;;;;;;;13.35;65.97;100556.16;4922263;28;97975;-58
2021/10/15 08:02:11;;;;;;;;;;;;;;;13.50;65.39;100547.91;4922529;28;98914;-57
2021/10/15 08:04:37;;;;;;;;;;;;;;;13.61;65.33;100559.47;4922061;28;98810;-57
2021/10/15 08:07:03;;;;;;;;;;;;;;;13.63;65.67;100543.72;4922226;28;103863;-58
2021/10/15 08:09:31;;;;;;;;;;;;;;;13.72;65.45;100552.88;4923034;28;97921;-57
2021/10/15 08:11:57;;;;;;;;;;;;;;;13.80;65.16;100554.16;4922588;28;98520;-58
2021/10/15 08:14:23;;;;;;;;;;;;;;;13.94;64.89;100553.16;4921584;28;125992;-58
2021/10/15 08:16:49;;;;;;;;;;;;;;;14.02;64.63;100546.31;4921573;28;97780;-57
2021/10/15 08:19:15;;;;;;;;;;;;;;;14.09;64.54;100545.97;4920406;28;98549;-57
2021/10/15 08:21:41;;;;;;;;;;;;;;;14.15;64.44;100555.66;4921571;28;127820;-57
2021/10/15 08:24:09;;;;;;;;;;;;;;;14.14;64.75;100546.69;4921816;28;98267;-58
2021/10/15 08:26:35;;;;;;;;;;;;;;;14.14;64.45;100548.59;4921847;28;98512;-57
2021/10/15 08:29:01;;;;;;;;;;;;;;;14.14;64.69;100545.91;4920809;28;117702;-57
2021/10/15 08:31:27;;;;;;;;;;;;;;;14.19;64.40;100554.00;4921058;28;128069;-60
2021/10/15 08:33:54;;;;;;;;;;;;;;;14.24;64.33;100545.78;4921971;28;99714;-58
2021/10/15 08:36:22;;;;;;;;;;;;;;;14.25;63.86;100536.56;4921094;28;108751;-57
2021/10/15 08:38:51;;;;;;;;;;;;;;;14.28;64.25;100541.41;4921794;28;98117;-57
2021/10/15 08:41:19;;;;;;;;;;;;;;;14.40;63.91;100540.97;4921389;28;113296;-58
2021/10/15 08:43:45;;;;;;;;;;;;;;;14.70;63.45;100532.47;4921490;28;98464;-57
2021/10/15 08:46:11;;;;;;;;;;;;;;;15.13;62.70;100526.13;4922250;28;119263;-60
2021/10/15 08:48:39;;;;;;;;;;;;;;;15.59;61.51;100528.88;4921288;28;108371;-58
2021/10/15 08:51:05;;;;;;;;;;;;;;;20.81;51.65;100527.47;4922475;28;98988;-59
2021/10/15 08:53:43;;;;;;;;;;;;;;;24.49;46.58;100552.31;4920115;28;106408;-57
2021/10/15 08:56:09;;;;;;;;;;;;;;;27.85;43.09;100560.44;4922433;28;98488;-58
2021/10/15 08:58:41;;;;;;;;;;;;;;;27.74;44.31;100550.44;4919902;28;117950;-58
2021/10/15 09:01:08;;;;;;;;;;;;;;;25.61;48.69;100538.81;4922252;28;99095;-59
2021/10/15 09:03:34;;;;;;;;;;;;;;;27.92;44.46;100534.78;4887965;28;98525;-59
2021/10/15 09:06:01;;;;;;;;;;;;;;;29.24;43.18;100535.53;4920182;28;118777;-58
2021/10/15 09:08:46;;;;;;;;;;;;;;;29.39;44.12;100532.78;4920428;28;110023;-60
2021/10/15 09:11:33;;;;;;;;;;;;;;;30.07;43.32;100526.09;4921775;28;98553;-60
2021/10/15 09:14:14;;;;;;;;;;;;;;;30.47;42.88;100512.16;4921192;28;98173;-60
2021/10/15 09:17:07;;;;;;;;;;;;;;;30.61;42.25;100511.28;4921600;28;98064;-58
2021/10/15 09:19:33;;;;;;;;;;;;;;;30.55;42.35;100508.16;4921128;28;97916;-58
2021/10/15 09:22:32;;;;;;;;;;;;;;;30.59;41.45;100508.13;4920912;28;99365;-60
2021/10/15 09:25:00;;;;;;;;;;;;;;;30.35;41.44;100495.91;4900715;28;98173;-60
2021/10/15 09:27:34;;;;;;;;;;;;;;;30.50;40.91;100492.69;4922392;28;97935;-58
2021/10/15 09:30:01;;;;;;;;;;;;;;;30.70;40.65;100476.31;4924459;28;98020;-60
2021/10/15 09:32:34;;;;;;;;;;;;;;;30.36;40.59;100478.81;4924503;28;98773;-58
2021/10/15 09:35:00;;;;;;;;;;;;;;;30.35;40.34;100477.22;4924906;28;98203;-60
2021/10/15 09:37:28;;;;;;;;;;;;;;;30.45;40.07;100483.94;4923382;28;128345;-60
2021/10/15 09:40:04;;;;;;;;;;;;;;;30.86;39.04;100470.28;4925216;28;97899;-60
2021/10/15 09:42:30;;;;;;;;;;;;;;;31.99;37.44;100469.88;4924673;28;99037;-58
2021/10/15 09:45:04;;;;;;;;;;;;;;;33.70;35.43;100478.78;4924152;28;98745;-60
2021/10/15 09:47:30;;;;;;;;;;;;;;;35.38;33.01;100469.78;4924407;28;97989;-58
2021/10/15 09:50:06;;;;;;;;;;;;;;;36.04;32.06;100464.13;4924663;28;98088;-58
2021/10/15 09:52:35;;;;;;;;;;;;;;;35.72;32.10;100448.16;4924687;28;97914;-60
2021/10/15 09:55:06;;;;;;;;;;;;;;;35.85;31.96;100438.59;4924484;28;98307;-58
2021/10/15 09:57:37;;;;;;;;;;;;;;;35.79;31.85;100445.94;4924490;28;98691;-58
2021/10/15 10:00:08;;;;;;;;;;;;;;;35.16;32.55;100430.28;4924125;28;97940;-59
2021/10/15 10:02:34;;;;;;;;;;;;;;;35.39;31.73;100425.75;4924114;28;98298;-60
2021/10/15 10:05:01;;;;;;;;;;;;;;;35.47;31.13;100434.75;4925397;28;98532;-58
2021/10/15 10:07:27;;;;;;;;;;;;;;;36.16;30.35;100438.19;4905512;28;97980;-60
2021/10/15 10:09:53;;;;;;;;;;;;;;;36.35;30.29;100422.38;4923364;28;117328;-58
2021/10/15 10:12:19;;;;;;;;;;;;;;;37.00;29.38;100433.28;4922751;28;113529;-60
2021/10/15 10:14:46;;;;;;;;;;;;;;;37.24;28.82;100414.03;4924551;28;98765;-60
2021/10/15 10:17:14;;;;;;;;;;;;;;;34.68;31.49;100423.38;4925014;28;97856;-59
2021/10/15 10:19:40;;;;;;;;;;;;;;;33.80;31.79;100409.16;4907412;28;97754;-60
2021/10/15 10:22:06;;;;;;;;;;;;;;;31.20;34.48;100394.53;4905577;28;98431;-58
2021/10/15 10:24:33;;;;;;;;;;;;;;;32.65;31.52;100410.97;4889011;28;127935;-58
2021/10/15 10:26:59;;;;;;;;;;;;;;;30.47;34.12;100404.50;4889025;28;110346;-59
2021/10/15 10:29:26;;;;;;;;;;;;;;;28.42;36.12;100404.91;4906803;28;98079;-59
2021/10/15 10:31:53;;;;;;;;;;;;;;;28.22;35.66;100406.34;4923862;28;98534;-59
2021/10/15 10:34:28;;;;;;;;;;;;;;;27.02;36.75;100405.84;4905341;28;99226;-57
2021/10/15 10:37:07;;;;;;;;;;;;;;;25.85;37.51;100413.44;4922420;28;127758;-57
2021/10/15 10:39:35;;;;;;;;;;;;;;;24.99;38.27;100420.25;4923207;28;98058;-58
2021/10/15 10:42:07;;;;;;;;;;;;;;;24.04;39.00;100406.09;4923362;28;97816;-59
2021/10/15 10:44:49;;;;;;;;;;;;;;;23.43;39.55;100399.97;4924217;28;98418;-59
2021/10/15 10:47:19;;;;;;;;;;;;;;;23.07;39.42;100397.44;4923541;28;98179;-59
2021/10/15 10:50:04;;;;;;;;;;;;;;;22.51;39.79;100393.56;4924187;28;98046;-57
2021/10/15 10:52:45;;;;;;;;;;;;;;;22.16;40.16;100384.31;4923332;28;98295;-59
2021/10/15 10:55:39;;;;;;;;;;;;;;;21.52;40.77;100388.59;4924165;28;98486;-59
2021/10/15 10:58:32;;;;;;;;;;;;;;;21.08;41.17;100397.31;4922705;28;98351;-57
2021/10/15 11:01:26;;;;;;;;;;;;;;;20.76;41.43;100385.25;4923641;28;97782;-59
2021/10/15 11:03:52;;;;;;;;;;;;;;;20.72;41.28;100389.81;4922542;28;98583;-59
2021/10/15 11:06:18;;;;;;;;;;;;;;;20.59;41.54;100396.34;4937622;28;98391;-59
2021/10/15 11:08:46;;;;;;;;;;;;;;;20.44;41.70;100407.91;4903467;28;128612;-58
2021/10/15 11:11:23;;;;;;;;;;;;;;;20.02;42.17;100396.97;4923534;28;97890;-59
2021/10/15 11:13:50;;;;;;;;;;;;;;;19.64;42.71;100397.00;4922649;28;97944;-59
2021/10/15 11:16:20;;;;;;;;;;;;;;;19.53;42.89;100410.22;4923154;28;118039;-59
2021/10/15 11:18:46;;;;;;;;;;;;;;;19.48;42.84;100411.22;4922717;28;99200;-59
2021/10/15 11:21:12;;;;;;;;;;;;;;;19.80;42.45;100409.00;4923825;28;97990;-57
2021/10/15 11:23:39;;;;;;;;;;;;;;;19.90;42.47;100418.75;4923134;28;99195;-58
2021/10/15 11:26:05;;;;;;;;;;;;;;;19.94;42.45;100414.22;4923579;28;98218;-57
2021/10/15 11:28:31;;;;;;;;;;;;;;;19.84;42.62;100399.78;4922252;28;98485;-59
2021/10/15 11:30:58;;;;;;;;;;;;;;;19.63;43.00;100411.81;4922904;28;97855;-59
2021/10/15 11:33:25;;;;;;;;;;;;;;;19.42;43.25;100407.06;4905138;28;98155;-58
2021/10/15 11:35:52;;;;;;;;;;;;;;;19.29;43.53;100410.78;4924078;28;98506;-58
2021/10/15 11:38:22;;;;;;;;;;;;;;;19.04;43.91;100407.81;4922702;28;98681;-59
2021/10/15 11:41:03;;;;;;;;;;;;;;;18.65;44.40;100422.47;4901449;28;97982;-57
2021/10/15 11:43:33;;;;;;;;;;;;;;;18.32;45.07;100416.72;4922823;28;99977;-57
2021/10/15 11:46:06;;;;;;;;;;;;;;;18.10;45.47;100415.72;4923284;28;114164;-58
2021/10/15 11:48:41;;;;;;;;;;;;;;;17.93;45.51;100410.25;4922977;28;98551;-57
2021/10/15 11:51:20;;;;;;;;;;;;;;;17.88;45.60;100415.81;4922565;28;98215;-57
2021/10/15 11:53:47;;;;;;;;;;;;;;;17.74;45.86;100402.31;4921911;28;112594;-57
2021/10/15 11:56:15;;;;;;;;;;;;;;;17.69;45.66;100399.72;4922710;28;99267;-59
2021/10/15 11:58:45;;;;;;;;;;;;;;;17.71;46.02;100399.41;4923080;28;98131;-58
2021/10/15 12:01:19;;;;;;;;;;;;;;;17.77;45.86;100404.44;4923034;28;99367;-58
2021/10/15 12:03:45;;;;;;;;;;;;;;;17.85;46.07;100411.03;4921934;28;97955;-58
2021/10/15 12:06:14;;;;;;;;;;;;;;;17.91;45.79;100401.56;4922655;28;98712;-59
2021/10/15 12:08:41;;;;;;;;;;;;;;;17.99;45.92;100408.94;4922798;28;98025;-58
2021/10/15 12:11:13;;;;;;;;;;;;;;;17.99;45.76;100405.44;4904453;28;98502;-60
2021/10/15 12:13:39;;;;;;;;;;;;;;;17.91;46.24;100404.28;4904760;28;98823;-59
2021/10/15 12:16:23;;;;;;;;;;;;;;;17.85;46.25;100409.09;4904137;28;114387;-58
2021/10/15 12:19:04;;;;;;;;;;;;;;;17.89;46.13;100406.53;4921594;28;98144;-58
2021/10/15 12:21:41;;;;;;;;;;;;;;;17.85;46.18;100403.66;4921700;28;97802;-58
2021/10/15 12:24:10;;;;;;;;;;;;;;;17.80;46.41;100403.81;4921906;28;97782;-59
2021/10/15 12:26:36;;;;;;;;;;;;;;;17.76;46.42;100404.72;4922282;28;116174;-58
2021/10/15 12:29:02;;;;;;;;;;;;;;;17.72;46.63;100404.53;4921620;28;97872;-59
2021/10/15 12:31:35;;;;;;;;;;;;;;;17.76;46.62;100397.34;4921542;28;97789;-58
2021/10/15 12:34:14;;;;;;;;;;;;;;;17.91;46.46;100398.84;4922065;28;98105;-59
2021/10/15 12:36:41;;;;;;;;;;;;;;;17.98;46.24;100406.56;4922457;28;99063;-59
2021/10/15 12:39:24;;;;;;;;;;;;;;;17.80;46.60;100408.41;4921578;28;99822;-58
2021/10/15 12:41:54;;;;;;;;;;;;;;;17.51;47.07;100406.22;4921455;28;98062;-59
2021/10/15 12:44:22;;;;;;;;;;;;;;;17.24;47.56;100407.22;4917807;28;98140;-58
2021/10/15 12:47:01;;;;;;;;;;;;;;;16.95;48.02;100405.81;4921161;28;117298;-59